Laguepe — 9HAI9 — position and weather

sailwx.info

Track history (hours):
 
Tides and Currents Weather Stations Pressure Air Temp Water Temp Dewpoint Dewpoint Depression Visibility Wind Speed Wind Dir Waves Ship Positions

Laguepe

Last reported at 2016-Feb-06 19:30 UTC. Time now 2016-Feb-06 23:27 UTC.
Position N 38°19' E 015°08'.

Length 81 m; draft 3.2 m.

Type: Cargo ship. MMSI: 256681000.

Date/timePositionNaut miles runAvg speedWind from/ knotsBaromVisibWave heightAir tempDewpointWater temp
2016-Feb-06 19:30N 38°19' E 015°08'9 9.3
2016-Feb-06 18:31N 38°20' E 015°20'9 9.3
2016-Feb-06 17:33N 38°20' E 015°31'  
2016-Feb-01 14:06N 36°42' E 014°41'610.4
2016-Feb-01 13:33N 36°43' E 014°34'10 9.8
2016-Feb-01 12:34N 36°46' E 014°23'9 9.2
2016-Feb-01 11:34N 36°50' E 014°12'9 9.0
2016-Feb-01 10:34N 36°53' E 014°02'9 9.0
2016-Feb-01 09:34N 36°55' E 013°51'9 9.2
2016-Feb-01 08:33N 36°59' E 013°40'256 8.8
2016-Jan-31 03:26N 38°36' E 008°41'269 9.0
2016-Jan-29 21:33N 42°25' E 005°35'19 9.2
2016-Jan-29 19:27N 42°42' E 005°23'8 9.1
2016-Jan-29 18:33N 42°49' E 005°18'9 8.8
2016-Jan-29 17:33N 42°57' E 005°12'9 9.4
2016-Jan-29 16:33N 43°05' E 005°06'10 9.6
2016-Jan-29 15:33N 43°13' E 004°59'9 9.0
2016-Jan-29 14:33N 43°22' E 004°57'6 6.0
2016-Jan-29 13:33N 43°23' E 004°49'0 0.1
2016-Jan-29 12:33N 43°23' E 004°48'0 0.0
2016-Jan-29 11:33N 43°23' E 004°48'0 0.0
2016-Jan-29 10:33N 43°23' E 004°48'0 0.0
2016-Jan-29 09:33N 43°23' E 004°48'0 0.0
2016-Jan-29 08:33N 43°23' E 004°48'8 7.6
2016-Jan-29 07:33N 43°30' E 004°44'8 8.5
2016-Jan-29 06:33N 43°37' E 004°39'  
Track history (hours):
 
Tides and Currents Weather Stations Pressure Air Temp Water Temp Dewpoint Dewpoint Depression Visibility Wind Speed Wind Dir Waves Ship Positions

Laguepe

Last reported at 2016-Feb-06 19:30 UTC. Time now 2016-Feb-06 23:27 UTC.
Position N 38°19' E 015°08'.

Length 81 m; draft 3.2 m.

Type: Cargo ship. MMSI: 256681000.

Date/timePositionNaut miles runAvg speedWind from/ knotsBaromVisibWave heightAir tempDewpointWater temp
2016-Feb-06 19:30N 38°19' E 015°08'9 9.3
2016-Feb-06 18:31N 38°20' E 015°20'9 9.3
2016-Feb-06 17:33N 38°20' E 015°31'  
2016-Feb-01 14:06N 36°42' E 014°41'610.4
2016-Feb-01 13:33N 36°43' E 014°34'10 9.8
2016-Feb-01 12:34N 36°46' E 014°23'9 9.2
2016-Feb-01 11:34N 36°50' E 014°12'9 9.0
2016-Feb-01 10:34N 36°53' E 014°02'9 9.0
2016-Feb-01 09:34N 36°55' E 013°51'9 9.2
2016-Feb-01 08:33N 36°59' E 013°40'256 8.8
2016-Jan-31 03:26N 38°36' E 008°41'269 9.0
2016-Jan-29 21:33N 42°25' E 005°35'19 9.2
2016-Jan-29 19:27N 42°42' E 005°23'8 9.1
2016-Jan-29 18:33N 42°49' E 005°18'9 8.8
2016-Jan-29 17:33N 42°57' E 005°12'9 9.4
2016-Jan-29 16:33N 43°05' E 005°06'10 9.6
2016-Jan-29 15:33N 43°13' E 004°59'9 9.0
2016-Jan-29 14:33N 43°22' E 004°57'6 6.0
2016-Jan-29 13:33N 43°23' E 004°49'0 0.1
2016-Jan-29 12:33N 43°23' E 004°48'0 0.0
2016-Jan-29 11:33N 43°23' E 004°48'0 0.0
2016-Jan-29 10:33N 43°23' E 004°48'0 0.0
2016-Jan-29 09:33N 43°23' E 004°48'0 0.0
2016-Jan-29 08:33N 43°23' E 004°48'8 7.6
2016-Jan-29 07:33N 43°30' E 004°44'8 8.5
2016-Jan-29 06:33N 43°37' E 004°39'  

Dump ship's entire track history